KRWI/RWI METAR and TAF weather

Enter ICAO airport designator
Station Type Date Time Source
KRWI METAR 2019/02/22 22:36 UTC NOAA

KRWI 222236Z AUTO 02006KT 2SM -RA BR FEW007 SCT025 OVC035 07/06 A3037 RMK AO2 P0004 T00670061


Station Type Date Time Source
KRWI Decoded METAR 2019/02/22 22:36 UTC NOAA

ROCKY MOUNT-WILSON AIRPORT, NC, United States (KRWI) 35-51N 077-54W 47M
Feb 22, 2019 - 05:36 PM EST / 2019.02.22 2236 UTC
Wind: from the NNE (020 degrees) at 7 MPH (6 KT):0
Visibility: 2 mile(s):0
Sky conditions: overcast
Weather: light rain; mist
Precipitation last hour: 0.04 inches
Temperature: 44.1 F (6.7 C)
Dew Point: 43.0 F (6.1 C)
Relative Humidity: 95%
Pressure (altimeter): 30.37 in. Hg (1028 hPa)
ob: KRWI 222236Z AUTO 02006KT 2SM -RA BR FEW007 SCT025 OVC035 07/06 A3037 RMK AO2 P0004 T00670061
cycle: 22

Station Type Date Time Source
KRWI TAF 2019/02/22 21:45 UTC NOAA

TAF
AMD KRWI 222041Z 2221/2318 05009KT 5SM -RADZ BR OVC010
TEMPO 2221/2224 04009G16KT 2SM -RADZ BR OVC005
FM230400 04008G15KT 3SM -RADZ BR OVC006


Example: see airport list